Rancho Mirage, California
Current Conditions -  °F | °C
As of 10:53 PM on Thursday 27 Nov 2014 (Local Time) from KPSP Reporting Station
Clear Clear  
Wind Chill: 60°   Ceiling: Unl
Heat Index: 60°   Visibility: 10mi
Dew Point: 24°   Wind: 9mph
Humidity: 25%   Direction: 330°NNW
Pressure: 30.07"   Gusts: NA
Location:  33.77°N, 116.44°W
Report Text: KPSP 280653Z AUTO 33008KT 10SM CLR 16/M04 A3007 RMK AO2 SLP180 T01561044 TSNO
Loading
Personal Weather Stations






























Interactive Weather Map New forecast layout! Learn more

10-Day Weather Forecast

Advertisements
Track Severe Weather on mobile